createdAt,value
2023-02-13T00:04:30.883Z,103412.66
2023-02-13T00:09:33.385Z,103416.25
2023-02-13T00:14:36.812Z,103405.75
2023-02-13T00:19:40.824Z,103402.19
2023-02-13T00:24:43.493Z,103404.47
2023-02-13T00:29:46.053Z,103405.09
2023-02-13T00:34:49.912Z,103416.16
2023-02-13T00:39:52.475Z,103410.59
2023-02-13T00:44:55.629Z,103405.19
2023-02-13T00:49:59.482Z,103408.56
2023-02-13T00:55:02.014Z,103407.47
2023-02-13T01:00:05.207Z,103412.09
2023-02-13T01:05:09.408Z,103401.31
2023-02-13T01:10:12.268Z,103409.91
2023-02-13T01:15:14.779Z,103407.28
2023-02-13T01:20:19.241Z,103396.66
2023-02-13T01:25:22.441Z,103406.03
2023-02-13T01:30:25.063Z,103396.31
2023-02-13T01:35:28.872Z,103404.19
2023-02-13T01:40:32.038Z,103407.38
2023-02-13T01:45:34.856Z,103411.88
2023-02-13T01:50:42.566Z,103411.88
2023-02-13T01:55:50.285Z,103400.47
2023-02-13T02:00:52.890Z,103403.25
2023-02-13T02:06:00.096Z,103396.91
2023-02-13T02:11:12.375Z,103394.13
2023-02-13T02:16:15.043Z,103388.31
2023-02-13T02:21:52.225Z,103379.88
2023-02-13T02:27:31.131Z,103387.56
2023-02-13T02:32:47.964Z,103379.00
2023-02-13T02:38:07.593Z,103388.56
2023-02-13T02:43:25.453Z,103381.47
2023-02-13T02:48:50.872Z,103385.78
2023-02-13T02:54:03.514Z,103373.63
2023-02-13T02:59:28.227Z,103376.84
2023-02-13T03:04:55.266Z,103374.50
2023-02-13T03:10:18.542Z,103377.84
2023-02-13T03:15:21.965Z,103374.31
2023-02-13T03:20:55.982Z,103370.75
2023-02-13T03:26:13.599Z,103362.91
2023-02-13T03:31:25.240Z,103380.41
2023-02-13T03:36:58.481Z,103382.69
2023-02-13T03:42:04.913Z,103374.09
2023-02-13T03:47:10.494Z,103375.41
2023-02-13T03:52:19.719Z,103378.03
2023-02-13T03:57:43.710Z,103379.31
2023-02-13T04:02:55.989Z,103387.16
2023-02-13T04:07:59.910Z,103380.56
2023-02-13T04:13:12.457Z,103384.72
2023-02-13T04:18:18.798Z,103381.41
2023-02-13T04:23:22.657Z,103377.88
2023-02-13T04:28:25.200Z,103378.94
2023-02-13T04:33:27.827Z,103378.03
2023-02-13T04:38:31.649Z,103369.84
2023-02-13T04:43:34.138Z,103370.78
2023-02-13T04:48:38.741Z,103376.94
2023-02-13T04:53:42.795Z,103375.66
2023-02-13T04:58:45.265Z,103372.72
2023-02-13T05:03:47.737Z,103377.78
2023-02-13T05:08:51.551Z,103383.00
2023-02-13T05:13:54.013Z,103384.72
2023-02-13T05:18:56.514Z,103395.91
2023-02-13T05:24:01.212Z,103389.56
2023-02-13T05:29:22.812Z,103387.91
2023-02-13T05:34:27.965Z,103379.91
2023-02-13T05:39:31.794Z,103391.28
2023-02-13T05:44:34.294Z,103394.63
2023-02-13T05:49:36.794Z,103400.81
2023-02-13T05:54:40.617Z,103398.03
2023-02-13T05:59:43.178Z,103391.84
2023-02-13T06:04:45.656Z,103394.28
2023-02-13T06:09:49.493Z,103394.13
2023-02-13T06:14:52.006Z,103402.56
2023-02-13T06:19:54.473Z,103414.72
2023-02-13T06:24:58.315Z,103414.13
2023-02-13T06:30:00.821Z,103413.34
2023-02-13T06:35:05.518Z,103417.25
2023-02-13T06:40:11.150Z,103422.47
2023-02-13T06:45:14.373Z,103424.94
2023-02-13T06:50:18.229Z,103430.41
2023-02-13T06:55:22.130Z,103436.22
2023-02-13T07:00:26.209Z,103436.38
2023-02-13T07:05:29.527Z,103442.56
2023-02-13T07:10:33.345Z,103447.19
2023-02-13T07:15:36.411Z,103455.03
2023-02-13T07:20:38.905Z,103450.41
2023-02-13T07:25:42.714Z,103441.03
2023-02-13T07:30:45.239Z,103441.19
2023-02-13T07:35:48.083Z,103444.72
2023-02-13T07:40:51.901Z,103445.69
2023-02-13T07:45:56.039Z,103444.16
2023-02-13T07:51:02.169Z,103442.31
2023-02-13T07:56:10.862Z,103441.53
2023-02-13T08:01:15.622Z,103442.03
2023-02-13T08:06:19.029Z,103438.69
2023-02-13T08:11:47.260Z,103450.44
2023-02-13T08:16:49.827Z,103453.22
2023-02-13T08:21:52.384Z,103450.78
2023-02-13T08:26:56.656Z,103445.53
2023-02-13T08:31:59.160Z,103446.78
2023-02-13T08:37:02.450Z,103444.50
2023-02-13T08:42:06.443Z,103444.09
2023-02-13T08:47:08.992Z,103441.06
2023-02-13T08:52:11.470Z,103449.09
2023-02-13T08:57:15.286Z,103447.75
2023-02-13T09:02:17.793Z,103453.31
2023-02-13T09:07:20.283Z,103444.09
2023-02-13T09:12:24.156Z,103447.25
2023-02-13T09:17:26.621Z,103446.06
2023-02-13T09:22:30.561Z,103452.75
2023-02-13T09:27:34.681Z,103440.91
2023-02-13T09:32:37.935Z,103455.28
2023-02-13T09:37:40.388Z,103457.25
2023-02-13T09:42:46.376Z,103457.00
2023-02-13T09:47:49.620Z,103451.19
2023-02-13T09:52:54.571Z,103450.19
2023-02-13T09:58:06.531Z,103443.41
2023-02-13T10:03:28.785Z,103455.34
2023-02-13T10:08:42.692Z,103456.44
2023-02-13T10:14:00.683Z,103463.88
2023-02-13T10:19:09.849Z,103468.34
2023-02-13T10:24:19.423Z,103464.69
2023-02-13T10:29:44.447Z,103472.28
2023-02-13T10:34:47.914Z,103468.91
2023-02-13T10:39:52.213Z,103462.13
2023-02-13T10:45:10.623Z,103464.00
2023-02-13T10:50:22.854Z,103463.25
2023-02-13T10:55:55.923Z,103445.81
2023-02-13T11:01:05.845Z,103450.63
2023-02-13T11:06:14.663Z,103453.41
2023-02-13T11:11:29.856Z,103451.13
2023-02-13T11:16:41.471Z,103448.50
2023-02-13T11:21:44.164Z,103458.53
2023-02-13T11:26:53.525Z,103462.28
2023-02-13T11:32:12.633Z,103470.47
2023-02-13T11:37:19.103Z,103469.50
2023-02-13T11:42:27.272Z,103459.97
2023-02-13T11:47:40.850Z,103451.31
2023-02-13T11:52:44.376Z,103447.78
2023-02-13T11:57:57.459Z,103451.97
2023-02-13T12:03:01.404Z,103451.63
2023-02-13T12:08:04.030Z,103456.53
2023-02-13T12:13:15.238Z,103448.81
2023-02-13T12:18:28.363Z,103462.22
2023-02-13T12:23:41.118Z,103465.59
2023-02-13T12:29:07.867Z,103457.16
2023-02-13T12:34:47.052Z,103454.69
2023-02-13T12:40:04.015Z,103456.97
2023-02-13T12:45:22.819Z,103459.41
2023-02-13T12:50:37.264Z,103454.16
2023-02-13T12:55:58.755Z,103455.88
2023-02-13T13:01:11.345Z,103458.16
2023-02-13T13:06:46.430Z,103458.50
2023-02-13T13:12:14.541Z,103461.88
2023-02-13T13:17:28.778Z,103460.19
2023-02-13T13:22:35.467Z,103455.22
2023-02-13T13:27:44.803Z,103442.88
2023-02-13T13:32:52.259Z,103434.59
2023-02-13T13:38:03.392Z,103434.59
2023-02-13T13:43:18.358Z,103438.75
2023-02-13T13:48:46.363Z,103419.47
2023-02-13T13:54:23.561Z,103421.16
2023-02-13T14:00:07.749Z,103391.59
2023-02-13T14:05:22.590Z,103396.03
2023-02-13T14:11:07.876Z,103391.25
2023-02-13T14:16:12.958Z,103388.47
2023-02-13T14:21:24.237Z,103387.28
2023-02-13T14:26:33.265Z,103380.22
2023-02-13T14:31:39.428Z,103373.13
2023-02-13T14:36:45.145Z,103376.50
2023-02-13T14:41:59.200Z,103383.91
2023-02-13T14:47:06.695Z,103380.91
2023-02-13T14:52:17.031Z,103364.25
2023-02-13T14:57:22.300Z,103359.44
2023-02-13T15:02:28.402Z,103369.00
2023-02-13T15:07:35.290Z,103372.78
2023-02-13T15:12:38.339Z,103371.88
2023-02-13T15:17:42.193Z,103376.00
2023-02-13T15:22:47.866Z,103355.59
2023-02-13T15:27:54.417Z,103355.06
2023-02-13T15:32:59.805Z,103354.00
2023-02-13T15:38:20.772Z,103355.06
2023-02-13T15:43:26.663Z,103349.19
2023-02-13T15:48:33.160Z,103355.78
2023-02-13T15:53:35.690Z,103361.63
2023-02-13T15:58:38.308Z,103360.19
2023-02-13T16:03:44.337Z,103355.03
2023-02-13T16:08:53.431Z,103354.88
2023-02-13T16:14:03.918Z,103356.91
2023-02-13T16:19:07.864Z,103351.03
2023-02-13T16:24:10.370Z,103353.31
2023-02-13T16:29:18.763Z,103361.56
2023-02-13T16:34:27.445Z,103370.00
2023-02-13T16:39:31.811Z,103369.94
2023-02-13T16:44:34.516Z,103366.50
2023-02-13T16:49:38.888Z,103387.50
2023-02-13T16:54:55.634Z,103391.69
2023-02-13T17:00:03.847Z,103391.34
2023-02-13T17:05:23.087Z,103389.84
2023-02-13T17:10:28.105Z,103401.25
2023-02-13T17:15:32.114Z,103392.47
2023-02-13T17:20:38.378Z,103396.75
2023-02-13T17:25:42.536Z,103405.34
2023-02-13T17:30:46.166Z,103402.41
2023-02-13T17:35:50.543Z,103406.13
2023-02-13T17:40:53.043Z,103409.16
2023-02-13T17:45:55.604Z,103414.06
2023-02-13T17:50:59.766Z,103420.63
2023-02-13T17:56:02.637Z,103419.19
2023-02-13T18:01:05.527Z,103426.88
2023-02-13T18:06:12.648Z,103421.47
2023-02-13T18:11:15.161Z,103426.50
2023-02-13T18:16:17.799Z,103421.53
2023-02-13T18:21:24.070Z,103422.53
2023-02-13T18:26:26.604Z,103426.06
2023-02-13T18:31:29.846Z,103427.19
2023-02-13T18:36:33.759Z,103425.47
2023-02-13T18:41:36.265Z,103428.44
2023-02-13T18:46:38.840Z,103436.09
2023-02-13T18:51:44.411Z,103430.53
2023-02-13T18:56:47.022Z,103441.06
2023-02-13T19:01:49.764Z,103432.13
2023-02-13T19:06:53.688Z,103438.69
2023-02-13T19:11:56.180Z,103443.91
2023-02-13T19:16:58.706Z,103432.13
2023-02-13T19:22:03.333Z,103436.56
2023-02-13T19:27:05.842Z,103438.44
2023-02-13T19:32:08.415Z,103440.31
2023-02-13T19:37:12.248Z,103451.34
2023-02-13T19:42:14.800Z,103439.97
2023-02-13T19:47:17.285Z,103448.38
2023-02-13T19:52:21.124Z,103443.75
2023-02-13T19:57:23.726Z,103445.44
2023-02-13T20:02:26.258Z,103444.31
2023-02-13T20:07:30.899Z,103443.41
2023-02-13T20:12:33.460Z,103452.94
2023-02-13T20:17:37.461Z,103455.34
2023-02-13T20:22:41.413Z,103462.09
2023-02-13T20:27:43.933Z,103475.34
2023-02-13T20:32:46.505Z,103464.88
2023-02-13T20:37:50.452Z,103468.63
2023-02-13T20:42:53.013Z,103470.28
2023-02-13T20:47:55.519Z,103472.88
2023-02-13T20:52:59.669Z,103477.19
2023-02-13T20:58:02.195Z,103471.22
2023-02-13T21:03:04.942Z,103477.53
2023-02-13T21:08:08.923Z,103477.72
2023-02-13T21:13:11.580Z,103472.31
2023-02-13T21:18:14.118Z,103468.97
2023-02-13T21:23:18.212Z,103486.91
2023-02-13T21:28:21.227Z,103488.44
2023-02-13T21:33:23.887Z,103481.34
2023-02-13T21:38:27.736Z,103486.00
2023-02-13T21:43:30.241Z,103474.63
2023-02-13T21:48:32.736Z,103485.25
2023-02-13T21:53:36.658Z,103483.22
2023-02-13T21:58:41.253Z,103485.16
2023-02-13T22:03:43.964Z,103486.06
2023-02-13T22:08:48.230Z,103490.88
2023-02-13T22:13:54.550Z,103484.91
2023-02-13T22:18:57.218Z,103479.88
2023-02-13T22:24:01.135Z,103482.31
2023-02-13T22:29:05.704Z,103484.34
2023-02-13T22:34:08.805Z,103488.97
2023-02-13T22:39:13.611Z,103483.91
2023-02-13T22:44:16.159Z,103495.16
2023-02-13T22:49:18.664Z,103485.25
2023-02-13T22:54:22.502Z,103495.72
2023-02-13T22:59:25.045Z,103496.84
2023-02-13T23:04:27.586Z,103494.84
2023-02-13T23:09:31.440Z,103491.69
2023-02-13T23:14:34.011Z,103494.91
2023-02-13T23:19:36.960Z,103496.56
2023-02-13T23:24:41.006Z,103497.88
2023-02-13T23:29:43.527Z,103490.19
2023-02-13T23:34:46.222Z,103486.06
2023-02-13T23:39:50.075Z,103483.09
2023-02-13T23:44:52.616Z,103471.72
2023-02-13T23:49:55.112Z,103471.38
2023-02-13T23:54:58.959Z,103478.28
